KTM weather

Tribhuvan International Airport
Kathmandu, Bagmati, Nepal

Public forecast

Using degrees Celsius for public forecast. Weather courtesy of forecast.io.

METAR (pilot weather report)

Retrieved 2019/03/21 00:50 UTC (11 minutes ago):

VNKT 210050Z 17003KT 3500 BR FEW015 09/08 Q1018 NOSIG

TAF (pilot weather forecast)

Forecast is more than 12 hours old.

Retrieved 2019/03/20 00:39 UTC (1 day ago):

TAF VNKT 202300Z 2100/2124 00000KT 3000 BR FEW010 SCT025 PROB30 2101/2103 1500 BR BECMG 2104/2105 15004KT 5000 HZ FEW015 BECMG 2107/2109 24010KT 8000 FEW020 SCT100 BECMG 2114/2115 13003KT 7000 FEW015 SCT100